Time;durP1;ratioP1;P1;durP2;ratioP2;P2;SDS_P1;SDS_P2;PMS_P1;PMS_P2;Temp;Humidity;BMP_temperature;BMP_pressure;BME280_temperature;BME280_humidity;BME280_pressure;Samples;Min_cycle;Max_cycle;Signal;HPM_P1;HPM_P2
2021/12/26 00:00:47;;;;;;;;;;;5.80;95.40;;;;;;5051763;28;19952;-76
2021/12/26 00:03:12;;;;;;;;;;;5.90;95.50;;;;;;5054847;28;19996;-76
2021/12/26 00:05:38;;;;;;;;;;;5.80;95.50;;;;;;5053982;28;19991;-76
2021/12/26 00:08:04;;;;;;;;;;;5.90;95.40;;;;;;5048968;28;19966;-76
2021/12/26 00:10:30;;;;;;;;;;;5.90;95.40;;;;;;5053795;28;20472;-76
2021/12/26 00:12:56;;;;;;;;;;;5.90;95.50;;;;;;5055081;28;20028;-76
2021/12/26 00:15:22;;;;;;;;;;;5.90;95.50;;;;;;5055142;28;19944;-76
2021/12/26 00:17:48;;;;;;;;;;;5.90;95.50;;;;;;5054929;28;19959;-76
2021/12/26 00:20:14;;;;;;;;;;;5.80;95.50;;;;;;5054892;28;19937;-76
2021/12/26 00:22:40;;;;;;;;;;;5.80;95.50;;;;;;5054394;28;20325;-76
2021/12/26 00:25:07;;;;;;;;;;;5.80;95.50;;;;;;5053524;28;20016;-76
2021/12/26 00:27:33;;;;;;;;;;;5.90;95.60;;;;;;5054815;28;19961;-76
2021/12/26 00:29:58;;;;;;;;;;;5.90;95.60;;;;;;5054802;28;19950;-76
2021/12/26 00:32:24;;;;;;;;;;;5.90;95.60;;;;;;5053660;28;20028;-76
2021/12/26 00:34:50;;;;;;;;;;;5.90;95.60;;;;;;5052944;28;19988;-76
2021/12/26 00:37:16;;;;;;;;;;;5.90;95.60;;;;;;5055084;28;19957;-76
2021/12/26 00:39:42;;;;;;;;;;;5.90;95.50;;;;;;5054555;28;20038;-76
2021/12/26 00:42:07;;;;;;;;;;;5.90;95.50;;;;;;5054068;28;19946;-76
2021/12/26 00:44:38;;;;;;;;;;;5.90;95.50;;;;;;5053279;28;19948;-76
2021/12/26 00:47:04;;;;;;;;;;;5.80;95.40;;;;;;5052916;28;20381;-76
2021/12/26 00:49:30;;;;;;;;;;;5.80;95.40;;;;;;5054633;28;20309;-76
2021/12/26 00:51:55;;;;;;;;;;;5.70;95.40;;;;;;5055367;28;19939;-76
2021/12/26 00:54:21;;;;;;;;;;;5.70;95.50;;;;;;5053749;28;20039;-76
2021/12/26 00:56:47;;;;;;;;;;;5.80;95.50;;;;;;5055041;28;20410;-76
2021/12/26 00:59:13;;;;;;;;;;;5.70;95.60;;;;;;5053406;28;19948;-76
2021/12/26 01:01:38;;;;;;;;;;;5.70;95.60;;;;;;5055475;28;19943;-76
2021/12/26 01:04:04;;;;;;;;;;;5.70;95.60;;;;;;5053860;28;19983;-76
2021/12/26 01:06:29;;;;;;;;;;;5.70;95.70;;;;;;5053120;28;19947;-76
2021/12/26 01:08:55;;;;;;;;;;;5.70;95.80;;;;;;5050379;28;19965;-77
2021/12/26 01:11:36;;;;;;;;;;;5.70;95.80;;;;;;5054765;28;19981;-76
2021/12/26 01:14:04;;;;;;;;;;;5.70;95.80;;;;;;5053620;28;19953;-76
2021/12/26 01:16:30;;;;;;;;;;;5.70;95.80;;;;;;5055720;28;20407;-77
2021/12/26 01:19:03;;;;;;;;;;;5.70;95.80;;;;;;5055326;28;19950;-77
2021/12/26 01:21:28;;;;;;;;;;;5.70;95.80;;;;;;5052976;28;20409;-76
2021/12/26 01:23:59;;;;;;;;;;;5.70;95.80;;;;;;5054174;28;19945;-76
2021/12/26 01:26:25;;;;;;;;;;;5.70;95.90;;;;;;5054477;28;20421;-76
2021/12/26 01:28:51;;;;;;;;;;;5.70;95.90;;;;;;5055335;28;19960;-76
2021/12/26 01:31:19;;;;;;;;;;;5.60;95.90;;;;;;5055793;28;19945;-76
2021/12/26 01:33:46;;;;;;;;;;;5.60;95.90;;;;;;5053848;28;19949;-77
2021/12/26 01:36:11;;;;;;;;;;;5.60;95.80;;;;;;5054703;28;20026;-77
2021/12/26 01:38:37;;;;;;;;;;;5.60;95.80;;;;;;5054599;28;20033;-76
2021/12/26 01:41:09;;;;;;;;;;;5.60;95.90;;;;;;5054806;28;19985;-77
2021/12/26 01:43:35;;;;;;;;;;;5.60;95.90;;;;;;5054267;28;19943;-76
2021/12/26 01:46:01;;;;;;;;;;;5.50;95.90;;;;;;5054918;28;19996;-77
2021/12/26 01:48:26;;;;;;;;;;;5.50;95.90;;;;;;5053084;28;20417;-77
2021/12/26 01:50:52;;;;;;;;;;;5.50;95.90;;;;;;5054075;28;19943;-76
2021/12/26 01:53:19;;;;;;;;;;;5.50;95.90;;;;;;5053526;28;20242;-77
2021/12/26 01:55:46;;;;;;;;;;;5.50;95.90;;;;;;5054936;28;19945;-77
2021/12/26 01:58:14;;;;;;;;;;;5.40;95.90;;;;;;5054455;28;19953;-77
2021/12/26 02:00:41;;;;;;;;;;;5.40;95.90;;;;;;5054376;28;19952;-77
2021/12/26 02:03:07;;;;;;;;;;;5.40;95.90;;;;;;5054130;28;20346;-77
2021/12/26 02:05:33;;;;;;;;;;;5.40;95.90;;;;;;5053814;28;19946;-77
2021/12/26 02:07:58;;;;;;;;;;;5.40;95.90;;;;;;5046312;28;20029;-77
2021/12/26 02:10:24;;;;;;;;;;;5.40;95.80;;;;;;5053690;28;19946;-77
2021/12/26 02:12:50;;;;;;;;;;;5.30;95.80;;;;;;5054310;28;19950;-77
2021/12/26 02:15:15;;;;;;;;;;;5.30;95.90;;;;;;5053337;28;19942;-76
2021/12/26 02:17:41;;;;;;;;;;;5.20;95.90;;;;;;5052805;28;19962;-76
2021/12/26 02:20:34;;;;;;;;;;;5.20;95.90;;;;;;5053253;28;20429;-77
2021/12/26 02:23:08;;;;;;;;;;;5.20;96.00;;;;;;5051156;28;19957;-76
2021/12/26 02:28:11;;;;;;;;;;;5.10;96.00;;;;;;5052080;28;20256;-77
2021/12/26 02:30:37;;;;;;;;;;;5.10;96.10;;;;;;5052179;28;19945;-77
2021/12/26 02:33:04;;;;;;;;;;;5.10;96.00;;;;;;5052918;28;20419;-77
2021/12/26 02:35:30;;;;;;;;;;;5.10;96.00;;;;;;5053290;28;19987;-76
2021/12/26 02:37:56;;;;;;;;;;;5.00;96.00;;;;;;5052483;28;19946;-77
2021/12/26 02:40:21;;;;;;;;;;;5.00;96.00;;;;;;5052124;28;19970;-77
2021/12/26 02:42:47;;;;;;;;;;;4.90;96.00;;;;;;5053690;28;19991;-76
2021/12/26 02:45:13;;;;;;;;;;;4.80;95.90;;;;;;5052061;28;20014;-77
2021/12/26 02:47:40;;;;;;;;;;;4.70;95.90;;;;;;5052926;28;20483;-77
2021/12/26 02:50:27;;;;;;;;;;;4.70;95.90;;;;;;5052913;28;19946;-77
2021/12/26 02:52:53;;;;;;;;;;;4.70;95.80;;;;;;5052338;28;20032;-77
2021/12/26 02:55:20;;;;;;;;;;;4.70;95.80;;;;;;5052147;28;20375;-77
2021/12/26 02:57:47;;;;;;;;;;;4.60;95.80;;;;;;5052127;28;19943;-77
2021/12/26 03:00:14;;;;;;;;;;;4.60;95.80;;;;;;5053706;28;20391;-77
2021/12/26 03:02:40;;;;;;;;;;;4.60;95.80;;;;;;5053570;28;20002;-76
2021/12/26 03:05:06;;;;;;;;;;;4.60;95.80;;;;;;5052640;28;19948;-77
2021/12/26 03:07:32;;;;;;;;;;;4.60;95.70;;;;;;5047755;28;20020;-77
2021/12/26 03:10:00;;;;;;;;;;;4.50;95.70;;;;;;5053312;28;19944;-77
2021/12/26 03:12:31;;;;;;;;;;;4.50;95.70;;;;;;5053939;28;19948;-76
2021/12/26 03:14:57;;;;;;;;;;;4.40;95.80;;;;;;5052498;28;19943;-76
2021/12/26 03:17:22;;;;;;;;;;;4.40;95.80;;;;;;5053663;28;20327;-77
2021/12/26 03:19:48;;;;;;;;;;;4.40;95.80;;;;;;5052999;28;20086;-77
2021/12/26 03:22:15;;;;;;;;;;;4.30;95.80;;;;;;5052053;28;19945;-77
2021/12/26 03:24:42;;;;;;;;;;;4.20;95.70;;;;;;5052005;28;19954;-77
2021/12/26 03:27:07;;;;;;;;;;;4.10;95.70;;;;;;5052373;28;19965;-77
2021/12/26 03:29:33;;;;;;;;;;;4.00;95.60;;;;;;5052790;28;19942;-77
2021/12/26 03:31:59;;;;;;;;;;;3.90;95.70;;;;;;5052746;28;19946;-77
2021/12/26 03:34:24;;;;;;;;;;;3.90;95.70;;;;;;5053360;28;19942;-77
2021/12/26 03:36:52;;;;;;;;;;;3.90;95.70;;;;;;5053789;28;20446;-77
2021/12/26 03:39:19;;;;;;;;;;;3.90;95.60;;;;;;5056960;28;19950;-77
2021/12/26 03:41:45;;;;;;;;;;;3.90;95.50;;;;;;5055610;28;19948;-76
2021/12/26 03:44:11;;;;;;;;;;;3.80;95.40;;;;;;5055710;28;20482;-76
2021/12/26 03:46:36;;;;;;;;;;;3.70;95.30;;;;;;5055110;28;19994;-76
2021/12/26 03:49:05;;;;;;;;;;;3.60;95.40;;;;;;5056511;28;19999;-77
2021/12/26 03:51:31;;;;;;;;;;;3.50;95.40;;;;;;5056370;28;19938;-77
2021/12/26 03:53:56;;;;;;;;;;;3.50;95.50;;;;;;5056233;28;19957;-77
2021/12/26 03:56:22;;;;;;;;;;;3.50;95.60;;;;;;5056232;28;19945;-77
2021/12/26 03:58:47;;;;;;;;;;;3.40;95.70;;;;;;5056385;28;19942;-77
2021/12/26 04:01:13;;;;;;;;;;;3.50;95.80;;;;;;5056513;28;19942;-77
2021/12/26 04:03:39;;;;;;;;;;;3.50;95.80;;;;;;5055760;28;19944;-77
2021/12/26 04:06:04;;;;;;;;;;;3.50;95.80;;;;;;5055118;28;19995;-77
2021/12/26 04:08:30;;;;;;;;;;;3.50;95.80;;;;;;5049480;28;19982;-77
2021/12/26 04:10:56;;;;;;;;;;;3.50;96.00;;;;;;5054558;28;20003;-77
2021/12/26 04:13:21;;;;;;;;;;;3.50;96.10;;;;;;5056511;28;20309;-77
2021/12/26 04:15:47;;;;;;;;;;;3.40;96.00;;;;;;5054849;28;19948;-77
2021/12/26 04:18:12;;;;;;;;;;;3.40;96.00;;;;;;5056483;28;19976;-77
2021/12/26 04:20:38;;;;;;;;;;;3.20;95.90;;;;;;5056048;28;19941;-76
2021/12/26 04:23:03;;;;;;;;;;;3.10;96.00;;;;;;5055902;28;20018;-77
2021/12/26 04:25:29;;;;;;;;;;;3.10;96.00;;;;;;5055547;28;19995;-77
2021/12/26 04:27:55;;;;;;;;;;;3.10;96.20;;;;;;5055522;28;20384;-77
2021/12/26 04:30:21;;;;;;;;;;;3.20;96.30;;;;;;5056142;28;19937;-77
2021/12/26 04:32:47;;;;;;;;;;;3.30;96.40;;;;;;5055745;28;19943;-77
2021/12/26 04:35:12;;;;;;;;;;;3.20;96.40;;;;;;5053965;28;20394;-77
2021/12/26 04:37:38;;;;;;;;;;;3.20;96.50;;;;;;5055946;28;19983;-77
2021/12/26 04:40:05;;;;;;;;;;;3.20;96.50;;;;;;5054266;28;19945;-77
2021/12/26 04:42:30;;;;;;;;;;;3.20;96.60;;;;;;5056195;28;19966;-77
2021/12/26 04:44:56;;;;;;;;;;;3.20;96.60;;;;;;5055080;28;20436;-77
2021/12/26 04:47:21;;;;;;;;;;;3.20;96.60;;;;;;5054834;28;20015;-77
2021/12/26 04:49:47;;;;;;;;;;;3.30;96.60;;;;;;5054559;28;20049;-77
2021/12/26 04:52:13;;;;;;;;;;;3.40;96.60;;;;;;5054667;28;19994;-77
2021/12/26 04:54:39;;;;;;;;;;;3.40;96.70;;;;;;5055101;28;20434;-77
2021/12/26 04:57:04;;;;;;;;;;;3.50;96.70;;;;;;5054509;28;20047;-77
2021/12/26 04:59:30;;;;;;;;;;;3.60;96.70;;;;;;5053779;28;19989;-77
2021/12/26 05:01:55;;;;;;;;;;;3.60;96.70;;;;;;5055141;28;20353;-77
2021/12/26 05:04:21;;;;;;;;;;;3.50;96.60;;;;;;5055470;28;20359;-77
2021/12/26 05:06:47;;;;;;;;;;;3.50;96.60;;;;;;5052167;28;19951;-77
2021/12/26 05:09:14;;;;;;;;;;;3.50;96.60;;;;;;5052142;28;19964;-77
2021/12/26 05:11:40;;;;;;;;;;;3.40;96.60;;;;;;5055324;28;19948;-77
2021/12/26 05:14:05;;;;;;;;;;;3.40;96.60;;;;;;5053541;28;19957;-77
2021/12/26 05:16:31;;;;;;;;;;;3.40;96.70;;;;;;5055224;28;20301;-77
2021/12/26 05:18:57;;;;;;;;;;;3.40;96.70;;;;;;5052830;28;20009;-77
2021/12/26 05:21:22;;;;;;;;;;;3.40;96.70;;;;;;5054574;28;19950;-76
2021/12/26 05:23:48;;;;;;;;;;;3.40;96.70;;;;;;5054168;28;19943;-77
2021/12/26 05:26:13;;;;;;;;;;;3.40;96.70;;;;;;5054289;28;20484;-77
2021/12/26 05:28:39;;;;;;;;;;;3.40;96.70;;;;;;5050926;28;19957;-77
2021/12/26 05:31:04;;;;;;;;;;;3.40;96.70;;;;;;5035578;28;20003;-77
2021/12/26 05:33:30;;;;;;;;;;;3.40;96.70;;;;;;5035065;28;20006;-77
2021/12/26 05:35:55;;;;;;;;;;;3.40;96.70;;;;;;5034880;28;19988;-77
2021/12/26 05:38:21;;;;;;;;;;;3.40;96.80;;;;;;5035149;28;19945;-77
2021/12/26 05:40:47;;;;;;;;;;;3.40;96.70;;;;;;5033879;28;20413;-77
2021/12/26 05:43:12;;;;;;;;;;;3.40;96.80;;;;;;5034857;28;19944;-77
2021/12/26 05:45:38;;;;;;;;;;;3.40;96.80;;;;;;5016406;28;19987;-77
2021/12/26 05:48:04;;;;;;;;;;;3.40;96.80;;;;;;5032967;28;20024;-77
2021/12/26 05:50:29;;;;;;;;;;;3.40;96.70;;;;;;5034067;28;19945;-77
2021/12/26 05:52:55;;;;;;;;;;;3.40;96.70;;;;;;5032516;28;20313;-77
2021/12/26 05:55:20;;;;;;;;;;;3.50;96.80;;;;;;5033303;28;19941;-77
2021/12/26 05:57:46;;;;;;;;;;;3.50;96.80;;;;;;5033852;28;19944;-77
2021/12/26 06:00:13;;;;;;;;;;;3.50;96.80;;;;;;5033898;28;19941;-77
2021/12/26 06:02:39;;;;;;;;;;;3.50;96.80;;;;;;5049873;28;19946;-77
2021/12/26 06:05:05;;;;;;;;;;;3.40;96.70;;;;;;5053856;28;19947;-77
2021/12/26 06:07:30;;;;;;;;;;;3.30;96.80;;;;;;5046631;28;19998;-76
2021/12/26 06:09:56;;;;;;;;;;;3.30;96.70;;;;;;5051953;28;19947;-77
2021/12/26 06:12:22;;;;;;;;;;;3.20;96.70;;;;;;5053621;28;19941;-77
2021/12/26 06:14:47;;;;;;;;;;;3.20;96.80;;;;;;5053004;28;20035;-77
2021/12/26 06:17:13;;;;;;;;;;;3.20;96.80;;;;;;5053708;28;19988;-77
2021/12/26 06:19:39;;;;;;;;;;;3.20;96.90;;;;;;5053247;28;19974;-77
2021/12/26 06:22:06;;;;;;;;;;;3.20;96.90;;;;;;5052767;28;19936;-76
2021/12/26 06:24:32;;;;;;;;;;;3.20;96.80;;;;;;5053705;28;19952;-77
2021/12/26 06:26:57;;;;;;;;;;;3.10;96.80;;;;;;5052268;28;19968;-77
2021/12/26 06:29:23;;;;;;;;;;;3.10;96.80;;;;;;5052912;28;19967;-77
2021/12/26 06:31:49;;;;;;;;;;;3.10;96.80;;;;;;5052489;28;20425;-77
2021/12/26 06:34:14;;;;;;;;;;;3.00;96.80;;;;;;5052259;28;19949;-77
2021/12/26 06:36:40;;;;;;;;;;;3.00;96.80;;;;;;5050503;28;20005;-77
2021/12/26 06:39:06;;;;;;;;;;;3.00;96.90;;;;;;5051468;28;20299;-77
2021/12/26 06:41:33;;;;;;;;;;;3.00;96.90;;;;;;5049817;28;19951;-77
2021/12/26 06:43:59;;;;;;;;;;;2.90;96.90;;;;;;5050934;28;19989;-77
2021/12/26 06:46:24;;;;;;;;;;;2.90;96.90;;;;;;5057334;22;19978;-77
2021/12/26 06:48:50;;;;;;;;;;;3.00;97.00;;;;;;5051441;28;20017;-77
2021/12/26 06:51:15;;;;;;;;;;;3.00;97.00;;;;;;5050869;28;20413;-77
2021/12/26 06:53:41;;;;;;;;;;;3.00;97.00;;;;;;5050068;28;20434;-77
2021/12/26 06:56:06;;;;;;;;;;;3.00;97.00;;;;;;5049787;28;20036;-77
2021/12/26 06:58:32;;;;;;;;;;;3.00;97.00;;;;;;5048744;28;19948;-77
2021/12/26 07:00:58;;;;;;;;;;;3.00;97.10;;;;;;5050841;28;20056;-77
2021/12/26 07:03:23;;;;;;;;;;;3.00;97.00;;;;;;5050160;28;19976;-77
2021/12/26 07:05:49;;;;;;;;;;;3.00;97.10;;;;;;5049829;28;19980;-77
2021/12/26 07:08:14;;;;;;;;;;;3.00;97.10;;;;;;5042458;28;19977;-77
2021/12/26 07:10:40;;;;;;;;;;;3.00;97.10;;;;;;5048372;28;19957;-76
2021/12/26 07:13:05;;;;;;;;;;;3.00;97.10;;;;;;5050062;28;19945;-77
2021/12/26 07:15:31;;;;;;;;;;;3.00;97.10;;;;;;5049110;28;19946;-77
2021/12/26 07:17:56;;;;;;;;;;;3.10;97.10;;;;;;5050211;28;19980;-77
2021/12/26 07:20:22;;;;;;;;;;;3.00;97.10;;;;;;5048203;28;19952;-77
2021/12/26 07:22:48;;;;;;;;;;;3.10;97.10;;;;;;5050330;28;20477;-77
2021/12/26 07:25:14;;;;;;;;;;;3.10;97.10;;;;;;5049690;28;20070;-77
2021/12/26 07:27:40;;;;;;;;;;;3.20;97.20;;;;;;5049621;28;20180;-77
2021/12/26 07:30:06;;;;;;;;;;;3.20;97.20;;;;;;5048485;28;20000;-77
2021/12/26 07:32:32;;;;;;;;;;;3.20;97.20;;;;;;5049643;28;20441;-77
2021/12/26 07:34:58;;;;;;;;;;;3.20;97.20;;;;;;5049489;28;19943;-77
2021/12/26 07:37:24;;;;;;;;;;;3.30;97.20;;;;;;5049268;28;19960;-77
2021/12/26 07:39:49;;;;;;;;;;;3.40;97.20;;;;;;5050223;28;20324;-77
2021/12/26 07:42:15;;;;;;;;;;;3.50;97.20;;;;;;5050867;28;20033;-77
2021/12/26 07:44:40;;;;;;;;;;;3.50;97.20;;;;;;5049933;28;19984;-77
2021/12/26 07:47:06;;;;;;;;;;;3.60;97.30;;;;;;5050758;28;19947;-77
2021/12/26 07:49:32;;;;;;;;;;;3.70;97.20;;;;;;5050622;28;19954;-77
2021/12/26 07:51:58;;;;;;;;;;;3.70;97.20;;;;;;5050789;28;19946;-77
2021/12/26 07:54:24;;;;;;;;;;;3.70;97.20;;;;;;5049147;28;20043;-77
2021/12/26 07:56:51;;;;;;;;;;;3.70;97.20;;;;;;5050322;28;19977;-77
2021/12/26 07:59:16;;;;;;;;;;;3.80;97.20;;;;;;5050531;28;20086;-77
2021/12/26 08:01:42;;;;;;;;;;;3.80;97.20;;;;;;5049522;28;20040;-78
2021/12/26 08:04:08;;;;;;;;;;;3.90;97.20;;;;;;5051121;28;19943;-77
2021/12/26 08:06:34;;;;;;;;;;;3.80;97.20;;;;;;5048480;28;19938;-77
2021/12/26 08:08:59;;;;;;;;;;;3.90;97.20;;;;;;5045049;28;19992;-77
2021/12/26 08:11:25;;;;;;;;;;;4.00;97.20;;;;;;5050539;28;20456;-77
2021/12/26 08:13:50;;;;;;;;;;;4.00;97.20;;;;;;5050684;28;19944;-77
2021/12/26 08:16:16;;;;;;;;;;;4.00;97.20;;;;;;5049124;28;19950;-77
2021/12/26 08:18:42;;;;;;;;;;;4.00;97.20;;;;;;5050026;28;20310;-77
2021/12/26 08:21:08;;;;;;;;;;;4.00;97.20;;;;;;5049862;28;19948;-77
2021/12/26 08:23:34;;;;;;;;;;;4.10;97.20;;;;;;5051556;28;20291;-77
2021/12/26 08:26:00;;;;;;;;;;;4.10;97.20;;;;;;5051856;28;19967;-77
2021/12/26 08:28:25;;;;;;;;;;;4.10;97.20;;;;;;5052055;28;19971;-77
2021/12/26 08:30:51;;;;;;;;;;;4.10;97.20;;;;;;5054032;28;20398;-77
2021/12/26 08:33:17;;;;;;;;;;;4.10;97.20;;;;;;5053960;28;20039;-77
2021/12/26 08:35:44;;;;;;;;;;;4.10;97.20;;;;;;5052200;28;19947;-77
2021/12/26 08:38:09;;;;;;;;;;;4.10;97.20;;;;;;5053152;28;20392;-77
2021/12/26 08:40:35;;;;;;;;;;;4.10;97.10;;;;;;5051851;28;19958;-77
2021/12/26 08:43:01;;;;;;;;;;;4.00;97.10;;;;;;5052088;28;19960;-77
2021/12/26 08:45:27;;;;;;;;;;;4.00;97.10;;;;;;5053062;28;19979;-77
2021/12/26 08:47:53;;;;;;;;;;;4.00;97.10;;;;;;5051717;28;19968;-77
2021/12/26 08:50:20;;;;;;;;;;;4.10;97.10;;;;;;5052074;28;19948;-77
2021/12/26 08:52:46;;;;;;;;;;;4.20;97.10;;;;;;5053265;28;19991;-77
2021/12/26 08:55:12;;;;;;;;;;;4.20;97.20;;;;;;5052066;28;19951;-77
2021/12/26 08:57:37;;;;;;;;;;;4.30;97.20;;;;;;5051878;28;20296;-77
2021/12/26 09:00:05;;;;;;;;;;;4.40;97.20;;;;;;5053918;28;19944;-77
2021/12/26 09:02:30;;;;;;;;;;;4.50;97.20;;;;;;5053338;28;20347;-77
2021/12/26 09:04:56;;;;;;;;;;;4.50;97.20;;;;;;5053675;28;19945;-77
2021/12/26 09:07:21;;;;;;;;;;;4.60;97.20;;;;;;5048338;28;19957;-77
2021/12/26 09:09:48;;;;;;;;;;;4.60;97.20;;;;;;5052716;28;19944;-77
2021/12/26 09:12:13;;;;;;;;;;;4.60;97.20;;;;;;5053694;28;19947;-77
2021/12/26 09:14:39;;;;;;;;;;;4.70;97.10;;;;;;5053216;28;19942;-77
2021/12/26 09:17:05;;;;;;;;;;;4.70;97.10;;;;;;5052300;28;19977;-77
2021/12/26 09:19:32;;;;;;;;;;;4.80;97.10;;;;;;5053335;28;20455;-77
2021/12/26 09:21:59;;;;;;;;;;;4.80;97.00;;;;;;5051955;28;19980;-77
2021/12/26 09:24:24;;;;;;;;;;;4.90;97.00;;;;;;5052270;28;19951;-77
2021/12/26 09:26:50;;;;;;;;;;;4.90;96.90;;;;;;5051409;28;20059;-77
2021/12/26 09:29:15;;;;;;;;;;;5.00;96.80;;;;;;5052003;28;20117;-77
2021/12/26 09:31:41;;;;;;;;;;;5.00;96.80;;;;;;5053103;28;20413;-77
2021/12/26 09:34:06;;;;;;;;;;;5.00;96.80;;;;;;5050705;28;20049;-77
2021/12/26 09:36:32;;;;;;;;;;;5.00;96.70;;;;;;5051631;28;19942;-77
2021/12/26 09:38:58;;;;;;;;;;;4.90;96.60;;;;;;5051686;28;20017;-77
2021/12/26 09:41:23;;;;;;;;;;;4.90;96.40;;;;;;5052843;28;19969;-77
2021/12/26 09:43:49;;;;;;;;;;;4.90;96.30;;;;;;5053253;28;19985;-77
2021/12/26 09:46:14;;;;;;;;;;;5.00;96.30;;;;;;5052916;28;19978;-77
2021/12/26 09:48:40;;;;;;;;;;;5.00;96.20;;;;;;5051627;28;20012;-77
2021/12/26 09:51:06;;;;;;;;;;;5.00;96.10;;;;;;5052651;28;20405;-77
2021/12/26 09:53:37;;;;;;;;;;;5.00;96.00;;;;;;5052752;28;19954;-77
2021/12/26 09:56:03;;;;;;;;;;;5.00;95.90;;;;;;5051377;28;20034;-77
2021/12/26 09:58:29;;;;;;;;;;;5.10;95.90;;;;;;5051877;28;19967;-78
2021/12/26 10:00:54;;;;;;;;;;;5.20;95.90;;;;;;5051184;28;19954;-78
2021/12/26 10:03:27;;;;;;;;;;;5.30;95.80;;;;;;5052784;28;20002;-77
2021/12/26 10:06:14;;;;;;;;;;;5.30;95.60;;;;;;5051989;28;19967;-78
2021/12/26 10:08:50;;;;;;;;;;;5.20;95.20;;;;;;5045804;28;19969;-77
2021/12/26 10:11:17;;;;;;;;;;;5.30;95.30;;;;;;5051148;28;19967;-77
2021/12/26 10:13:43;;;;;;;;;;;5.40;95.50;;;;;;5052178;28;20342;-77
2021/12/26 10:16:08;;;;;;;;;;;5.40;95.40;;;;;;5050593;28;20042;-77
2021/12/26 10:18:39;;;;;;;;;;;5.50;95.30;;;;;;5051808;28;20421;-77
2021/12/26 10:21:23;;;;;;;;;;;5.50;95.10;;;;;;5051543;28;19946;-78
2021/12/26 10:23:49;;;;;;;;;;;5.50;94.70;;;;;;5051749;28;19983;-78
2021/12/26 10:26:19;;;;;;;;;;;5.60;94.50;;;;;;5051828;28;19980;-77
2021/12/26 10:29:02;;;;;;;;;;;5.60;94.50;;;;;;5051928;28;20010;-78
2021/12/26 10:31:28;;;;;;;;;;;5.70;94.30;;;;;;5052050;28;19941;-77
2021/12/26 10:33:53;;;;;;;;;;;5.70;93.90;;;;;;5050682;28;19940;-77
2021/12/26 10:36:19;;;;;;;;;;;5.70;93.90;;;;;;5050542;28;19977;-77
2021/12/26 10:39:04;;;;;;;;;;;5.80;93.60;;;;;;5051336;28;19993;-77
2021/12/26 10:41:30;;;;;;;;;;;5.80;93.40;;;;;;5052093;28;19968;-77
2021/12/26 10:43:55;;;;;;;;;;;6.00;93.70;;;;;;5052835;28;20329;-77
2021/12/26 10:46:21;;;;;;;;;;;6.10;93.40;;;;;;5049643;28;20468;-77
2021/12/26 10:48:46;;;;;;;;;;;6.20;93.40;;;;;;5052503;28;20368;-77
2021/12/26 10:51:31;;;;;;;;;;;6.30;92.90;;;;;;5052250;28;19945;-77
2021/12/26 10:54:13;;;;;;;;;;;6.40;92.30;;;;;;5051274;28;19962;-78
2021/12/26 10:56:39;;;;;;;;;;;6.40;92.10;;;;;;5051893;28;19936;-77
2021/12/26 10:59:17;;;;;;;;;;;6.40;92.00;;;;;;5052828;28;19938;-77
2021/12/26 11:01:43;;;;;;;;;;;6.50;91.60;;;;;;5052692;28;19948;-77
2021/12/26 11:04:10;;;;;;;;;;;6.50;91.40;;;;;;5051652;28;19940;-77
2021/12/26 11:06:57;;;;;;;;;;;6.50;91.00;;;;;;5051279;28;19951;-77
2021/12/26 11:09:22;;;;;;;;;;;6.50;90.80;;;;;;5048956;28;20418;-77
2021/12/26 11:12:07;;;;;;;;;;;6.50;91.00;;;;;;5052385;28;19941;-77
2021/12/26 11:14:53;;;;;;;;;;;6.60;91.10;;;;;;5051550;28;19946;-77
2021/12/26 11:17:32;;;;;;;;;;;6.70;91.10;;;;;;5051202;28;20081;-78
2021/12/26 11:19:59;;;;;;;;;;;6.70;91.30;;;;;;5052318;28;19993;-78
2021/12/26 11:22:25;;;;;;;;;;;6.90;91.30;;;;;;5050902;28;19945;-77
2021/12/26 11:24:53;;;;;;;;;;;6.90;90.60;;;;;;5050878;28;19957;-78
2021/12/26 11:27:18;;;;;;;;;;;7.00;90.10;;;;;;5050367;28;19967;-77
2021/12/26 11:29:44;;;;;;;;;;;7.00;90.20;;;;;;5051038;28;19946;-77
2021/12/26 11:32:09;;;;;;;;;;;7.10;89.90;;;;;;5051031;28;19955;-78
2021/12/26 11:34:36;;;;;;;;;;;7.10;89.60;;;;;;5052327;28;19943;-78
2021/12/26 11:37:02;;;;;;;;;;;7.30;89.60;;;;;;5050860;28;19952;-78
2021/12/26 11:39:27;;;;;;;;;;;7.30;89.40;;;;;;5050803;28;19954;-78
2021/12/26 11:41:53;;;;;;;;;;;7.40;88.90;;;;;;5052375;28;20402;-78
2021/12/26 11:44:37;;;;;;;;;;;7.40;88.60;;;;;;5052597;28;19949;-78
2021/12/26 11:47:29;;;;;;;;;;;7.60;88.70;;;;;;5052408;28;19954;-77
2021/12/26 11:50:12;;;;;;;;;;;7.60;88.20;;;;;;5050846;28;20045;-78
2021/12/26 11:52:54;;;;;;;;;;;7.60;88.40;;;;;;5050675;28;20246;-77
2021/12/26 11:55:27;;;;;;;;;;;7.70;88.20;;;;;;5050419;28;20008;-78
2021/12/26 11:57:53;;;;;;;;;;;7.70;87.60;;;;;;5053920;28;19975;-78
2021/12/26 12:00:24;;;;;;;;;;;7.90;87.80;;;;;;5056905;28;20060;-78
2021/12/26 12:02:57;;;;;;;;;;;8.00;87.40;;;;;;5056092;28;20385;-77
2021/12/26 12:05:24;;;;;;;;;;;8.10;87.30;;;;;;5056103;28;20011;-78
2021/12/26 12:07:49;;;;;;;;;;;8.10;86.70;;;;;;5048654;28;19965;-78
2021/12/26 12:10:33;;;;;;;;;;;8.00;86.00;;;;;;5056233;28;19951;-78
2021/12/26 12:12:59;;;;;;;;;;;8.00;86.60;;;;;;5053990;28;19959;-78
2021/12/26 12:15:43;;;;;;;;;;;8.00;86.80;;;;;;5055871;28;20317;-77
2021/12/26 12:18:11;;;;;;;;;;;8.00;87.90;;;;;;5055429;28;20452;-77
2021/12/26 12:20:36;;;;;;;;;;;8.00;87.90;;;;;;5054052;28;19966;-77
2021/12/26 12:23:08;;;;;;;;;;;7.90;88.30;;;;;;5054442;28;19941;-77
2021/12/26 12:25:34;;;;;;;;;;;7.90;88.80;;;;;;5053958;28;19958;-77
2021/12/26 12:28:14;;;;;;;;;;;7.90;88.70;;;;;;5056178;28;19964;-77
2021/12/26 12:30:42;;;;;;;;;;;7.90;89.00;;;;;;5034677;28;19942;-77
2021/12/26 12:33:10;;;;;;;;;;;7.90;89.00;;;;;;5034578;28;19948;-78
2021/12/26 12:35:56;;;;;;;;;;;7.90;89.50;;;;;;5035478;28;20467;-77
2021/12/26 12:38:31;;;;;;;;;;;7.90;89.30;;;;;;5034262;28;20455;-77
2021/12/26 12:40:58;;;;;;;;;;;7.90;89.00;;;;;;5035781;28;19949;-77
2021/12/26 12:43:24;;;;;;;;;;;7.90;88.90;;;;;;5048667;28;20038;-77
2021/12/26 12:45:50;;;;;;;;;;;7.90;89.00;;;;;;5054328;28;19994;-77
2021/12/26 12:48:26;;;;;;;;;;;7.80;88.80;;;;;;5056124;28;19961;-77
2021/12/26 12:51:14;;;;;;;;;;;7.90;89.00;;;;;;5055432;28;19946;-77
2021/12/26 12:53:50;;;;;;;;;;;7.90;88.80;;;;;;5053777;28;19990;-77
2021/12/26 12:56:35;;;;;;;;;;;7.90;88.90;;;;;;5054239;28;20018;-77
2021/12/26 12:59:16;;;;;;;;;;;7.90;89.20;;;;;;5054100;28;20417;-77
2021/12/26 13:01:48;;;;;;;;;;;7.80;89.00;;;;;;5055360;28;19991;-77
2021/12/26 13:04:15;;;;;;;;;;;7.80;88.90;;;;;;5054508;28;19960;-77
2021/12/26 13:06:50;;;;;;;;;;;7.70;88.70;;;;;;5053134;28;19948;-77
2021/12/26 13:09:16;;;;;;;;;;;7.70;89.00;;;;;;5050161;28;19972;-77
2021/12/26 13:11:43;;;;;;;;;;;7.70;89.50;;;;;;5055007;28;19949;-77
2021/12/26 13:14:08;;;;;;;;;;;7.70;89.60;;;;;;5054811;28;19943;-77
2021/12/26 13:16:34;;;;;;;;;;;7.60;89.30;;;;;;5055142;28;20314;-77
2021/12/26 13:19:06;;;;;;;;;;;7.70;89.70;;;;;;5053588;28;20490;-77
2021/12/26 13:21:32;;;;;;;;;;;7.70;89.60;;;;;;5054455;28;19943;-77
2021/12/26 13:23:58;;;;;;;;;;;7.60;89.70;;;;;;5054407;28;19941;-77
2021/12/26 13:26:23;;;;;;;;;;;7.60;89.60;;;;;;5052832;28;19964;-77
2021/12/26 13:28:50;;;;;;;;;;;7.60;89.60;;;;;;5054564;28;20058;-77
2021/12/26 13:31:17;;;;;;;;;;;7.60;90.00;;;;;;5053229;28;20347;-77
2021/12/26 13:33:45;;;;;;;;;;;7.60;90.30;;;;;;5054419;28;19943;-77
2021/12/26 13:36:13;;;;;;;;;;;7.70;90.40;;;;;;5053858;28;19983;-78
2021/12/26 13:38:39;;;;;;;;;;;7.70;89.90;;;;;;5052772;28;19952;-77
2021/12/26 13:41:05;;;;;;;;;;;7.80;89.80;;;;;;5052804;28;20004;-77
2021/12/26 13:43:31;;;;;;;;;;;7.80;89.30;;;;;;5054478;28;20419;-77
2021/12/26 13:45:58;;;;;;;;;;;7.80;89.40;;;;;;5053318;28;19983;-78
2021/12/26 13:48:25;;;;;;;;;;;7.90;89.30;;;;;;5054851;28;19964;-77
2021/12/26 13:50:50;;;;;;;;;;;7.90;89.10;;;;;;5054096;28;19948;-77
2021/12/26 13:53:16;;;;;;;;;;;8.00;89.00;;;;;;5052820;28;19944;-78
2021/12/26 13:55:42;;;;;;;;;;;8.00;88.80;;;;;;5053996;28;19948;-78
2021/12/26 13:58:09;;;;;;;;;;;8.00;89.00;;;;;;5054339;28;20357;-77
2021/12/26 14:00:48;;;;;;;;;;;8.00;89.20;;;;;;5053882;28;20043;-77
2021/12/26 14:03:13;;;;;;;;;;;8.00;89.20;;;;;;5051855;28;19948;-77
2021/12/26 14:05:39;;;;;;;;;;;8.00;89.00;;;;;;5052363;28;19978;-77
2021/12/26 14:08:19;;;;;;;;;;;8.00;89.00;;;;;;5047398;28;20047;-78
2021/12/26 14:10:45;;;;;;;;;;;7.90;89.50;;;;;;5052486;28;19977;-77
2021/12/26 14:13:11;;;;;;;;;;;7.80;89.50;;;;;;5052869;28;19988;-77
2021/12/26 14:15:44;;;;;;;;;;;7.80;89.70;;;;;;5052251;28;19994;-77
2021/12/26 14:18:15;;;;;;;;;;;7.80;89.90;;;;;;5052162;28;19952;-77
2021/12/26 14:20:56;;;;;;;;;;;7.70;90.00;;;;;;5052847;28;19983;-77
2021/12/26 14:23:27;;;;;;;;;;;7.70;90.00;;;;;;5053099;28;19950;-77
2021/12/26 14:25:55;;;;;;;;;;;7.70;90.20;;;;;;5053738;28;19974;-77
2021/12/26 14:28:22;;;;;;;;;;;7.70;90.30;;;;;;5052612;28;19964;-77
2021/12/26 14:30:48;;;;;;;;;;;7.70;90.40;;;;;;5053125;28;19968;-78
2021/12/26 14:33:14;;;;;;;;;;;7.80;90.40;;;;;;5052078;28;19943;-77
2021/12/26 14:35:40;;;;;;;;;;;7.80;90.20;;;;;;5053240;28;20432;-77